Terminal Aerodrome Forecast
Issued by NWS

Home | Current Version | Previous Version | Text Only | Print | Product List | Glossary On
Versions: 1 2 3 4 5 6 7 8 9 10 11 12 13 14 15 16 17 18 19 20 21 22 23 24 25 26 27 28 29 30 31 32 33 34 35 36 37 38 39 40
000
FTUS45 KGJT 190524
TAFRIL
TAF
KRIL 190524Z 1906/2006 11005KT P6SM SCT250
     FM191800 24009KT P6SM FEW250
     FM192000 23017G27KT P6SM SCT250
     FM200400 16012G20KT P6SM BKN110=

USA.gov is the U.S. government's official web portal to all federal, state and local government web resources and services.